createdAt,value
2018-07-24T00:00:01.524Z,78.30
2018-07-24T00:01:01.558Z,75.60
2018-07-24T00:02:01.754Z,79.30
2018-07-24T00:03:01.588Z,80.80
2018-07-24T00:04:01.591Z,68.30
2018-07-24T00:05:01.593Z,79.20
2018-07-24T00:06:01.629Z,78.80
2018-07-24T00:07:01.785Z,74.40
2018-07-24T00:08:01.650Z,77.00
2018-07-24T00:09:01.665Z,76.50
2018-07-24T00:10:01.683Z,78.00
2018-07-24T00:11:01.746Z,72.90
2018-07-24T00:12:01.808Z,74.20
2018-07-24T00:13:01.720Z,77.80
2018-07-24T00:14:01.741Z,70.20
2018-07-24T00:15:01.746Z,67.60
2018-07-24T00:16:01.769Z,76.30
2018-07-24T00:17:01.930Z,77.30
2018-07-24T00:18:01.788Z,77.50
2018-07-24T00:19:01.802Z,70.50
2018-07-24T00:20:01.818Z,73.60
2018-07-24T00:21:01.816Z,69.90
2018-07-24T00:22:01.999Z,80.50
2018-07-24T00:23:01.863Z,75.90
2018-07-24T00:24:01.876Z,75.70
2018-07-24T00:25:01.887Z,77.90
2018-07-24T00:26:01.896Z,69.20
2018-07-24T00:27:01.999Z,74.10
2018-07-24T00:28:01.932Z,84.10
2018-07-24T00:29:01.944Z,77.40
2018-07-24T00:30:01.953Z,77.70
2018-07-24T00:31:01.963Z,77.70
2018-07-24T00:32:02.118Z,81.00
2018-07-24T00:33:01.996Z,79.60
2018-07-24T00:34:01.988Z,86.30
2018-07-24T00:35:02.032Z,86.70
2018-07-24T00:36:02.035Z,80.00
2018-07-24T00:37:02.053Z,72.20
2018-07-24T00:38:02.212Z,80.60
2018-07-24T00:39:02.073Z,83.60
2018-07-24T00:40:02.091Z,80.70
2018-07-24T00:41:02.106Z,80.30
2018-07-24T00:42:02.098Z,82.10
2018-07-24T00:43:02.288Z,82.10
2018-07-24T00:44:02.141Z,75.60
2018-07-24T00:45:02.158Z,76.80
2018-07-24T00:46:02.170Z,81.70
2018-07-24T00:47:02.188Z,94.30
2018-07-24T00:48:02.303Z,87.60
2018-07-24T00:49:02.200Z,73.90
2018-07-24T00:50:02.227Z,79.40
2018-07-24T00:51:02.239Z,82.80
2018-07-24T00:52:02.262Z,81.90
2018-07-24T00:53:02.417Z,76.00
2018-07-24T00:54:02.335Z,81.00
2018-07-24T00:55:02.293Z,79.30
2018-07-24T00:56:02.311Z,83.50
2018-07-24T00:57:02.319Z,86.90
2018-07-24T00:58:02.421Z,86.60
2018-07-24T00:59:02.344Z,87.90
2018-07-24T01:00:02.342Z,80.00
2018-07-24T01:01:02.354Z,91.40
2018-07-24T01:02:02.393Z,86.00
2018-07-24T01:03:02.553Z,88.70
2018-07-24T01:04:02.416Z,96.20
2018-07-24T01:05:02.407Z,85.10
2018-07-24T01:06:02.440Z,95.50
2018-07-24T01:07:02.452Z,88.60
2018-07-24T01:08:02.565Z,93.30
2018-07-24T01:09:02.476Z,97.00
2018-07-24T01:10:02.506Z,87.70
2018-07-24T01:11:02.512Z,89.60
2018-07-24T01:12:02.519Z,96.80
2018-07-24T01:13:02.687Z,92.60
2018-07-24T01:14:02.542Z,91.30
2018-07-24T01:15:02.555Z,88.00
2018-07-24T01:16:02.576Z,81.30
2018-07-24T01:17:02.566Z,83.10
2018-07-24T01:18:02.752Z,80.60
2018-07-24T01:19:02.608Z,78.40
2018-07-24T01:20:02.621Z,80.20
2018-07-24T01:21:02.636Z,93.80
2018-07-24T01:22:02.656Z,81.60
2018-07-24T01:23:02.917Z,81.50
2018-07-24T01:24:02.679Z,92.30
2018-07-24T01:25:02.687Z,82.20
2018-07-24T01:26:02.705Z,85.80
2018-07-24T01:27:02.715Z,85.40
2018-07-24T01:28:02.881Z,90.90
2018-07-24T01:29:02.730Z,80.20
2018-07-24T01:30:02.748Z,84.90
2018-07-24T01:31:02.765Z,77.40
2018-07-24T01:32:02.782Z,85.60
2018-07-24T01:33:02.938Z,78.80
2018-07-24T01:34:02.809Z,82.30
2018-07-24T01:35:02.823Z,76.20
2018-07-24T01:36:02.833Z,73.70
2018-07-24T01:37:02.851Z,81.90
2018-07-24T01:38:03.016Z,80.10
2018-07-24T01:39:02.876Z,85.00
2018-07-24T01:40:02.865Z,82.70
2018-07-24T01:41:02.882Z,85.60
2018-07-24T01:42:02.917Z,75.40
2018-07-24T01:43:03.079Z,83.70
2018-07-24T01:44:02.940Z,89.20
2018-07-24T01:45:02.936Z,82.30
2018-07-24T01:46:02.967Z,108.00
2018-07-24T01:47:02.983Z,76.00
2018-07-24T01:48:03.001Z,77.90
2018-07-24T01:49:03.088Z,92.60
2018-07-24T01:50:03.024Z,83.50
2018-07-24T01:51:03.433Z,78.10
2018-07-24T01:52:03.043Z,86.90
2018-07-24T01:53:03.058Z,82.30
2018-07-24T01:54:03.377Z,81.70
2018-07-24T01:55:03.086Z,82.10
2018-07-24T01:56:03.480Z,82.00
2018-07-24T01:57:03.113Z,78.20
2018-07-24T01:58:03.125Z,91.70
2018-07-24T01:59:03.281Z,97.30
2018-07-24T02:00:03.151Z,80.00
2018-07-24T02:01:03.162Z,87.80
2018-07-24T02:02:03.178Z,81.70
2018-07-24T02:03:03.193Z,106.40
2018-07-24T02:04:03.431Z,95.30
2018-07-24T02:05:03.191Z,103.10
2018-07-24T02:06:03.220Z,107.90
2018-07-24T02:07:03.240Z,102.00
2018-07-24T02:08:03.256Z,93.70
2018-07-24T02:09:03.426Z,92.30
2018-07-24T02:10:03.275Z,99.30
2018-07-24T02:11:03.286Z,97.90
2018-07-24T02:12:03.297Z,92.00
2018-07-24T02:13:03.315Z,92.20
2018-07-24T02:14:03.479Z,90.90
2018-07-24T02:15:03.335Z,81.00
2018-07-24T02:16:03.358Z,80.00
2018-07-24T02:17:03.371Z,96.10
2018-07-24T02:18:03.382Z,86.20
2018-07-24T02:19:03.486Z,79.90
2018-07-24T02:20:03.386Z,92.40
2018-07-24T02:21:03.413Z,82.40
2018-07-24T02:22:03.433Z,78.30
2018-07-24T02:23:03.444Z,118.00
2018-07-24T02:24:03.709Z,111.00
2018-07-24T02:25:03.470Z,152.30
2018-07-24T02:26:03.481Z,140.10
2018-07-24T02:27:03.493Z,129.60
2018-07-24T02:28:03.502Z,146.10
2018-07-24T02:29:03.675Z,134.80
2018-07-24T02:30:03.529Z,122.60
2018-07-24T02:31:03.548Z,125.80
2018-07-24T02:32:03.543Z,121.00
2018-07-24T02:33:03.566Z,117.30
2018-07-24T02:34:03.730Z,119.40
2018-07-24T02:35:03.592Z,100.00
2018-07-24T02:36:03.605Z,112.50
2018-07-24T02:37:03.629Z,103.50
2018-07-24T02:38:03.640Z,106.20
2018-07-24T02:39:03.798Z,119.00
2018-07-24T02:40:03.659Z,115.50
2018-07-24T02:41:03.663Z,116.20
2018-07-24T02:42:03.897Z,118.70
2018-07-24T02:43:03.703Z,115.00
2018-07-24T02:44:03.969Z,109.00
2018-07-24T02:45:03.727Z,115.60
2018-07-24T02:46:03.721Z,116.70
2018-07-24T02:47:03.752Z,112.60
2018-07-24T02:48:03.763Z,113.90
2018-07-24T02:49:04.011Z,104.30
2018-07-24T02:50:03.790Z,107.80
2018-07-24T02:51:03.795Z,112.70
2018-07-24T02:52:03.816Z,110.70
2018-07-24T02:53:03.830Z,105.80
2018-07-24T02:54:03.986Z,108.00
2018-07-24T02:55:03.851Z,103.40
2018-07-24T02:56:03.865Z,110.30
2018-07-24T02:57:03.877Z,105.80
2018-07-24T02:58:03.887Z,108.80
2018-07-24T02:59:04.150Z,109.00
2018-07-24T03:00:03.912Z,101.60
2018-07-24T03:01:03.923Z,99.90
2018-07-24T03:02:03.945Z,100.00
2018-07-24T03:03:03.955Z,98.80
2018-07-24T03:04:03.961Z,100.00
2018-07-24T03:05:04.129Z,99.70
2018-07-24T03:06:03.991Z,103.10
2018-07-24T03:07:03.995Z,110.20
2018-07-24T03:08:04.012Z,117.80
2018-07-24T03:09:04.029Z,129.80
2018-07-24T03:10:04.044Z,149.20
2018-07-24T03:11:04.200Z,147.40
2018-07-24T03:12:04.071Z,142.90
2018-07-24T03:13:04.075Z,121.30
2018-07-24T03:14:04.162Z,123.70
2018-07-24T03:15:04.105Z,116.10
2018-07-24T03:16:04.295Z,118.80
2018-07-24T03:17:04.112Z,114.10
2018-07-24T03:18:04.141Z,123.60
2018-07-24T03:19:04.162Z,115.40
2018-07-24T03:20:04.169Z,111.90
2018-07-24T03:21:04.433Z,117.50
2018-07-24T03:22:04.258Z,111.80
2018-07-24T03:23:04.203Z,118.20
2018-07-24T03:24:04.215Z,116.80
2018-07-24T03:25:04.225Z,107.00
2018-07-24T03:26:04.397Z,111.30
2018-07-24T03:27:04.250Z,107.20
2018-07-24T03:28:04.272Z,111.40
2018-07-24T03:29:04.275Z,110.50
2018-07-24T03:30:04.294Z,112.30
2018-07-24T03:31:04.454Z,106.90
2018-07-24T03:32:04.314Z,111.80
2018-07-24T03:33:04.325Z,106.60
2018-07-24T03:34:04.339Z,119.50
2018-07-24T03:35:04.355Z,110.00
2018-07-24T03:36:04.516Z,119.60
2018-07-24T03:37:04.380Z,136.80
2018-07-24T03:38:04.373Z,132.40
2018-07-24T03:39:04.410Z,133.60
2018-07-24T03:40:04.421Z,135.50
2018-07-24T03:41:04.561Z,136.30
2018-07-24T03:42:04.450Z,124.90
2018-07-24T03:43:04.437Z,128.20
2018-07-24T03:44:04.448Z,132.90
2018-07-24T03:45:04.500Z,137.30
2018-07-24T03:46:04.645Z,141.30
2018-07-24T03:47:04.480Z,131.60
2018-07-24T03:48:04.515Z,126.50
2018-07-24T03:49:04.524Z,116.20
2018-07-24T03:50:04.543Z,119.50
2018-07-24T03:51:04.702Z,124.90
2018-07-24T03:52:04.562Z,120.70
2018-07-24T03:53:04.561Z,117.00
2018-07-24T03:54:04.789Z,124.90
2018-07-24T03:55:04.802Z,117.80
2018-07-24T03:56:04.766Z,114.60
2018-07-24T03:57:04.625Z,127.40
2018-07-24T03:58:04.642Z,124.80
2018-07-24T03:59:04.655Z,125.00
2018-07-24T04:00:04.644Z,117.60
2018-07-24T04:01:04.824Z,109.50
2018-07-24T04:02:04.690Z,121.50
2018-07-24T04:03:04.749Z,118.70
2018-07-24T04:04:04.727Z,116.30
2018-07-24T04:05:04.722Z,113.40
2018-07-24T04:06:04.984Z,117.50
2018-07-24T04:07:04.726Z,108.00
2018-07-24T04:08:04.755Z,113.80
2018-07-24T04:09:04.772Z,113.40
2018-07-24T04:10:04.786Z,110.30
2018-07-24T04:11:05.043Z,112.80
2018-07-24T04:12:04.804Z,119.10
2018-07-24T04:13:04.822Z,116.60
2018-07-24T04:14:04.810Z,141.60
2018-07-24T04:15:04.844Z,162.30
2018-07-24T04:16:04.853Z,160.10
2018-07-24T04:17:05.098Z,158.40
2018-07-24T04:18:04.877Z,155.40
2018-07-24T04:19:04.875Z,157.30
2018-07-24T04:20:04.889Z,142.50
2018-07-24T04:21:04.894Z,144.40
2018-07-24T04:22:04.929Z,141.90
2018-07-24T04:23:05.436Z,142.80
2018-07-24T04:24:04.951Z,148.60
2018-07-24T04:25:04.965Z,150.30
2018-07-24T04:26:04.968Z,145.70
2018-07-24T04:27:04.988Z,149.20
2018-07-24T04:28:04.998Z,152.20
2018-07-24T04:29:05.296Z,147.00
2018-07-24T04:30:05.072Z,177.40
2018-07-24T04:31:05.036Z,165.60
2018-07-24T04:32:05.048Z,140.80
2018-07-24T04:33:05.051Z,153.00
2018-07-24T04:34:05.316Z,146.60
2018-07-24T04:35:05.060Z,135.80
2018-07-24T04:36:05.085Z,137.60
2018-07-24T04:37:05.102Z,145.30
2018-07-24T04:38:05.121Z,133.20
2018-07-24T04:39:05.271Z,134.30
2018-07-24T04:40:05.141Z,129.80
2018-07-24T04:41:05.131Z,130.50
2018-07-24T04:42:05.144Z,141.40
2018-07-24T04:43:05.171Z,172.00
2018-07-24T04:44:05.272Z,177.70
2018-07-24T04:45:05.196Z,168.20
2018-07-24T04:46:05.209Z,169.70
2018-07-24T04:47:05.202Z,164.20
2018-07-24T04:48:05.231Z,160.70
2018-07-24T04:49:05.375Z,148.00
2018-07-24T04:50:05.260Z,143.30
2018-07-24T04:51:05.269Z,146.60
2018-07-24T04:52:05.276Z,143.10
2018-07-24T04:53:05.295Z,149.40
2018-07-24T04:54:05.437Z,136.40
2018-07-24T04:55:05.315Z,139.40
2018-07-24T04:56:05.331Z,124.70
2018-07-24T04:57:05.323Z,130.40
2018-07-24T04:58:05.367Z,135.30
2018-07-24T04:59:05.459Z,139.20
2018-07-24T05:00:05.383Z,129.70
2018-07-24T05:01:05.370Z,139.80
2018-07-24T05:02:05.397Z,139.60
2018-07-24T05:03:05.418Z,137.00
2018-07-24T05:04:05.575Z,133.10
2018-07-24T05:05:05.432Z,139.30
2018-07-24T05:06:05.449Z,145.90
2018-07-24T05:07:05.442Z,143.90
2018-07-24T05:08:05.472Z,140.60
2018-07-24T05:09:05.676Z,142.60
2018-07-24T05:10:05.495Z,146.20
2018-07-24T05:11:05.513Z,152.20
2018-07-24T05:12:05.506Z,147.30
2018-07-24T05:13:05.531Z,155.70
2018-07-24T05:14:05.693Z,164.20
2018-07-24T05:15:05.558Z,169.90
2018-07-24T05:16:05.570Z,167.60
2018-07-24T05:17:05.582Z,161.60
2018-07-24T05:18:05.594Z,157.50
2018-07-24T05:19:05.737Z,160.70
2018-07-24T05:20:05.601Z,177.20
2018-07-24T05:21:05.625Z,171.20
2018-07-24T05:22:05.641Z,177.40
2018-07-24T05:23:05.657Z,171.50
2018-07-24T05:24:05.757Z,177.40
2018-07-24T05:25:05.687Z,172.50
2018-07-24T05:26:05.886Z,175.20
2018-07-24T05:27:05.691Z,170.50
2018-07-24T05:28:05.691Z,152.30
2018-07-24T05:29:05.875Z,167.40
2018-07-24T05:30:05.727Z,174.20
2018-07-24T05:31:05.744Z,170.00
2018-07-24T05:32:05.753Z,171.50
2018-07-24T05:33:05.783Z,166.00
2018-07-24T05:34:05.929Z,178.80
2018-07-24T05:35:05.792Z,163.60
2018-07-24T05:36:05.803Z,170.00
2018-07-24T05:37:05.796Z,162.80
2018-07-24T05:38:05.826Z,158.50
2018-07-24T05:39:06.067Z,170.50
2018-07-24T05:40:05.845Z,163.00
2018-07-24T05:41:05.838Z,157.80
2018-07-24T05:42:05.872Z,165.10
2018-07-24T05:43:05.875Z,153.80
2018-07-24T05:44:05.888Z,173.90
2018-07-24T05:45:06.053Z,151.30
2018-07-24T05:46:05.912Z,166.20
2018-07-24T05:47:05.925Z,170.40
2018-07-24T05:48:05.933Z,170.50
2018-07-24T05:49:05.953Z,181.30
2018-07-24T05:50:05.967Z,191.60
2018-07-24T05:51:06.068Z,150.70
2018-07-24T05:52:05.990Z,141.20
2018-07-24T05:53:05.991Z,170.20
2018-07-24T05:54:05.986Z,162.60
2018-07-24T05:55:06.013Z,149.40
2018-07-24T05:56:06.114Z,130.90
2018-07-24T05:57:06.044Z,163.50
2018-07-24T05:58:06.053Z,187.90
2018-07-24T05:59:06.063Z,143.70
2018-07-24T06:00:06.073Z,126.40
2018-07-24T06:01:06.188Z,116.60
2018-07-24T06:02:06.100Z,133.60
2018-07-24T06:03:06.114Z,132.30
2018-07-24T06:04:06.121Z,130.60
2018-07-24T06:05:06.126Z,135.30
2018-07-24T06:06:06.289Z,124.70
2018-07-24T06:07:06.153Z,121.10
2018-07-24T06:08:06.170Z,115.20
2018-07-24T06:09:06.175Z,118.50
2018-07-24T06:10:06.194Z,116.30
2018-07-24T06:11:06.344Z,117.10
2018-07-24T06:12:06.204Z,129.40
2018-07-24T06:13:06.221Z,124.40
2018-07-24T06:14:06.233Z,119.20
2018-07-24T06:15:06.243Z,115.70
2018-07-24T06:16:06.404Z,99.60
2018-07-24T06:17:06.352Z,112.50
2018-07-24T06:18:06.281Z,113.50
2018-07-24T06:19:06.286Z,118.10
2018-07-24T06:20:06.300Z,116.70
2018-07-24T06:21:06.460Z,122.50
2018-07-24T06:22:06.329Z,124.00
2018-07-24T06:23:06.335Z,124.10
2018-07-24T06:24:06.349Z,126.50
2018-07-24T06:25:06.337Z,126.30
2018-07-24T06:26:06.597Z,120.00
2018-07-24T06:27:06.360Z,126.10
2018-07-24T06:28:06.388Z,127.40
2018-07-24T06:29:06.445Z,139.80
2018-07-24T06:30:06.415Z,144.70
2018-07-24T06:31:06.575Z,128.00
2018-07-24T06:32:06.439Z,131.50
2018-07-24T06:33:06.449Z,110.10
2018-07-24T06:34:06.442Z,114.90
2018-07-24T06:35:06.538Z,109.30
2018-07-24T06:36:06.577Z,104.20
2018-07-24T06:37:06.493Z,106.00
2018-07-24T06:38:06.502Z,99.40
2018-07-24T06:39:06.511Z,99.90
2018-07-24T06:40:06.518Z,100.20
2018-07-24T06:41:06.687Z,96.90
2018-07-24T06:42:06.551Z,104.20
2018-07-24T06:43:06.556Z,125.30
2018-07-24T06:44:06.571Z,138.80
2018-07-24T06:45:06.574Z,144.50
2018-07-24T06:46:06.686Z,141.50
2018-07-24T06:47:06.604Z,135.10
2018-07-24T06:48:06.616Z,145.00
2018-07-24T06:49:06.605Z,140.00
2018-07-24T06:50:06.635Z,134.10
2018-07-24T06:51:06.903Z,130.50
2018-07-24T06:52:06.653Z,140.20
2018-07-24T06:53:06.673Z,134.10
2018-07-24T06:54:06.662Z,142.90
2018-07-24T06:55:06.689Z,128.50
2018-07-24T06:56:06.807Z,136.20
2018-07-24T06:57:06.730Z,132.40
2018-07-24T06:58:06.723Z,129.40
2018-07-24T06:59:06.735Z,135.90
2018-07-24T07:00:06.743Z,133.40
2018-07-24T07:01:06.908Z,135.90
2018-07-24T07:02:06.778Z,133.70
2018-07-24T07:03:06.778Z,139.80
2018-07-24T07:04:06.795Z,131.00
2018-07-24T07:05:06.856Z,128.10
2018-07-24T07:06:06.966Z,131.50
2018-07-24T07:07:06.822Z,140.00
2018-07-24T07:08:06.841Z,140.30
2018-07-24T07:09:06.849Z,134.60
2018-07-24T07:10:06.875Z,140.80
2018-07-24T07:11:07.023Z,142.10
2018-07-24T07:12:06.881Z,142.00
2018-07-24T07:13:06.935Z,145.00
2018-07-24T07:14:06.885Z,141.80
2018-07-24T07:15:06.915Z,142.70
2018-07-24T07:16:06.927Z,148.90
2018-07-24T07:17:07.067Z,148.10
2018-07-24T07:18:06.956Z,147.70
2018-07-24T07:19:06.959Z,143.30
2018-07-24T07:20:06.976Z,151.70
2018-07-24T07:21:06.983Z,147.30
2018-07-24T07:22:06.992Z,154.50
2018-07-24T07:23:07.109Z,150.50
2018-07-24T07:24:07.018Z,147.10
2018-07-24T07:25:07.031Z,148.30
2018-07-24T07:26:07.101Z,153.20
2018-07-24T07:27:07.028Z,142.80
2018-07-24T07:28:07.211Z,147.70
2018-07-24T07:29:07.126Z,143.90
2018-07-24T07:30:07.066Z,151.60
2018-07-24T07:31:07.094Z,147.00
2018-07-24T07:32:07.136Z,150.00
2018-07-24T07:33:07.270Z,150.70
2018-07-24T07:34:07.126Z,158.10
2018-07-24T07:35:07.143Z,156.20
2018-07-24T07:36:07.128Z,147.40
2018-07-24T07:37:07.149Z,142.90
2018-07-24T07:38:07.325Z,138.90
2018-07-24T07:39:07.193Z,134.40
2018-07-24T07:40:07.194Z,137.60
2018-07-24T07:41:07.206Z,129.20
2018-07-24T07:42:07.201Z,126.60
2018-07-24T07:43:07.382Z,122.50
2018-07-24T07:44:07.246Z,127.60
2018-07-24T07:45:07.248Z,128.10
2018-07-24T07:46:07.283Z,125.60
2018-07-24T07:47:07.272Z,128.10
2018-07-24T07:48:07.430Z,128.00
2018-07-24T07:49:07.294Z,125.50
2018-07-24T07:50:07.315Z,125.00
2018-07-24T07:51:07.317Z,134.90
2018-07-24T07:52:07.333Z,138.60
2018-07-24T07:53:07.591Z,141.70
2018-07-24T07:54:07.351Z,146.50
2018-07-24T07:55:07.365Z,140.70
2018-07-24T07:56:07.369Z,143.40
2018-07-24T07:57:07.364Z,148.70
2018-07-24T07:58:07.547Z,147.20
2018-07-24T07:59:07.402Z,145.40
2018-07-24T08:00:07.418Z,144.10
2018-07-24T08:01:07.431Z,148.10
2018-07-24T08:02:07.444Z,139.40
2018-07-24T08:03:07.553Z,141.50
2018-07-24T08:04:07.447Z,148.80
2018-07-24T08:05:07.473Z,152.40
2018-07-24T08:06:07.463Z,149.50
2018-07-24T08:07:07.499Z,140.80
2018-07-24T08:08:07.662Z,137.50
2018-07-24T08:09:07.517Z,152.40
2018-07-24T08:10:07.531Z,137.60
2018-07-24T08:11:07.542Z,137.60
2018-07-24T08:12:07.546Z,138.50
2018-07-24T08:13:07.698Z,135.70
2018-07-24T08:14:07.602Z,135.20
2018-07-24T08:15:07.590Z,139.30
2018-07-24T08:16:07.596Z,135.30
2018-07-24T08:17:07.607Z,149.40
2018-07-24T08:18:07.764Z,152.20
2018-07-24T08:19:07.635Z,152.80
2018-07-24T08:20:07.635Z,147.30
2018-07-24T08:21:07.651Z,140.00
2018-07-24T08:22:07.665Z,156.40
2018-07-24T08:23:07.819Z,150.20
2018-07-24T08:24:07.684Z,152.70
2018-07-24T08:25:07.694Z,145.00
2018-07-24T08:26:07.691Z,150.10
2018-07-24T08:27:07.719Z,155.80
2018-07-24T08:28:07.866Z,149.10
2018-07-24T08:29:07.741Z,147.30
2018-07-24T08:30:07.752Z,155.00
2018-07-24T08:31:07.759Z,159.30
2018-07-24T08:32:07.771Z,165.60
2018-07-24T08:33:07.951Z,154.70
2018-07-24T08:34:07.794Z,150.70
2018-07-24T08:35:07.803Z,152.50
2018-07-24T08:36:07.814Z,163.70
2018-07-24T08:37:07.825Z,148.30
2018-07-24T08:38:08.000Z,159.40
2018-07-24T08:39:07.852Z,154.40
2018-07-24T08:40:07.862Z,159.10
2018-07-24T08:41:07.848Z,164.30
2018-07-24T08:42:08.078Z,167.00
2018-07-24T08:43:07.873Z,160.50
2018-07-24T08:44:08.038Z,129.00
2018-07-24T08:45:07.914Z,90.50
2018-07-24T08:46:07.929Z,90.70
2018-07-24T08:47:07.915Z,103.00
2018-07-24T08:48:07.955Z,110.30
2018-07-24T08:49:07.959Z,116.50
2018-07-24T08:50:08.219Z,128.80
2018-07-24T08:51:08.176Z,144.70
2018-07-24T08:52:07.987Z,150.00
2018-07-24T08:53:08.189Z,176.30
2018-07-24T08:54:08.119Z,162.80
2018-07-24T08:55:08.272Z,166.70
2018-07-24T08:56:08.033Z,174.80
2018-07-24T08:57:08.046Z,173.50
2018-07-24T08:58:08.054Z,177.80
2018-07-24T08:59:08.062Z,188.80
2018-07-24T09:00:08.225Z,187.80
2018-07-24T09:01:08.082Z,192.40
2018-07-24T09:02:08.099Z,183.30
2018-07-24T09:03:08.122Z,188.50
2018-07-24T09:04:08.164Z,182.60
2018-07-24T09:05:08.286Z,181.10
2018-07-24T09:06:08.141Z,180.90
2018-07-24T09:07:08.153Z,182.60
2018-07-24T09:08:08.140Z,174.50
2018-07-24T09:09:08.158Z,171.10
2018-07-24T09:10:08.354Z,173.70
2018-07-24T09:11:08.205Z,155.30
2018-07-24T09:12:08.216Z,142.10
2018-07-24T09:13:08.223Z,146.70
2018-07-24T09:14:08.232Z,145.20
2018-07-24T09:15:08.395Z,142.00
2018-07-24T09:16:08.249Z,146.00
2018-07-24T09:17:08.255Z,141.20
2018-07-24T09:18:08.279Z,138.20
2018-07-24T09:19:08.287Z,130.10
2018-07-24T09:20:08.382Z,134.10
2018-07-24T09:21:08.313Z,116.70
2018-07-24T09:22:08.325Z,120.20
2018-07-24T09:23:08.333Z,115.40
2018-07-24T09:24:08.350Z,116.20
2018-07-24T09:25:08.506Z,113.90
2018-07-24T09:26:08.367Z,111.70
2018-07-24T09:27:08.434Z,106.50
2018-07-24T09:28:08.395Z,106.80
2018-07-24T09:29:08.398Z,103.00
2018-07-24T09:30:08.519Z,105.50
2018-07-24T09:31:08.428Z,95.20
2018-07-24T09:32:08.500Z,92.40
2018-07-24T09:33:08.435Z,86.90
2018-07-24T09:34:08.456Z,89.20
2018-07-24T09:35:08.726Z,89.70
2018-07-24T09:36:08.479Z,92.20
2018-07-24T09:37:08.497Z,85.60
2018-07-24T09:38:08.499Z,87.10
2018-07-24T09:39:08.513Z,86.90
2018-07-24T09:40:08.782Z,81.70
2018-07-24T09:41:08.545Z,80.60
2018-07-24T09:42:08.549Z,74.60
2018-07-24T09:43:08.560Z,75.60
2018-07-24T09:44:08.574Z,74.00
2018-07-24T09:45:08.836Z,72.80
2018-07-24T09:46:08.603Z,73.80
2018-07-24T09:47:08.609Z,74.20
2018-07-24T09:48:08.627Z,73.00
2018-07-24T09:49:08.631Z,72.50
2018-07-24T09:50:08.797Z,72.10
2018-07-24T09:51:08.666Z,72.20
2018-07-24T09:52:08.672Z,71.70
2018-07-24T09:53:08.681Z,68.10
2018-07-24T09:54:08.702Z,69.10
2018-07-24T09:55:08.866Z,67.50
2018-07-24T09:56:08.719Z,60.20
2018-07-24T09:57:08.727Z,57.70
2018-07-24T09:58:08.744Z,59.90
2018-07-24T09:59:08.766Z,59.10
2018-07-24T10:00:08.917Z,56.70
2018-07-24T10:01:08.771Z,58.00
2018-07-24T10:02:08.790Z,53.60
2018-07-24T10:03:08.802Z,56.40
2018-07-24T10:04:08.815Z,58.50
2018-07-24T10:05:08.987Z,55.20
2018-07-24T10:06:08.844Z,58.10
2018-07-24T10:07:08.849Z,56.00
2018-07-24T10:08:08.858Z,57.90
2018-07-24T10:09:08.853Z,50.30
2018-07-24T10:10:08.882Z,50.60
2018-07-24T10:11:08.998Z,49.00
2018-07-24T10:12:08.948Z,51.70
2018-07-24T10:13:08.991Z,46.80
2018-07-24T10:14:08.939Z,44.90
2018-07-24T10:15:08.950Z,45.30
2018-07-24T10:16:08.957Z,42.20
2018-07-24T10:17:09.115Z,45.50
2018-07-24T10:18:08.982Z,42.00
2018-07-24T10:19:09.001Z,43.90
2018-07-24T10:20:09.002Z,43.50
2018-07-24T10:21:09.017Z,47.30
2018-07-24T10:22:09.163Z,46.60
2018-07-24T10:23:09.042Z,48.20
2018-07-24T10:24:09.058Z,43.50
2018-07-24T10:25:09.052Z,44.50
2018-07-24T10:26:09.055Z,42.50
2018-07-24T10:27:09.337Z,41.70
2018-07-24T10:28:09.098Z,38.60
2018-07-24T10:29:09.121Z,37.10
2018-07-24T10:30:09.104Z,38.80
2018-07-24T10:31:09.194Z,38.00
2018-07-24T10:32:09.284Z,36.20
2018-07-24T10:33:09.160Z,39.10
2018-07-24T10:34:09.176Z,38.80
2018-07-24T10:35:09.182Z,40.70
2018-07-24T10:36:09.200Z,47.10
2018-07-24T10:37:09.360Z,49.70
2018-07-24T10:38:09.225Z,42.90
2018-07-24T10:39:09.234Z,38.10
2018-07-24T10:40:09.247Z,37.30
2018-07-24T10:41:09.263Z,41.40
2018-07-24T10:42:09.519Z,41.00
2018-07-24T10:43:09.323Z,40.70
2018-07-24T10:44:09.300Z,40.10
2018-07-24T10:45:09.316Z,37.20
2018-07-24T10:46:09.852Z,35.20
2018-07-24T10:47:09.472Z,37.40
2018-07-24T10:48:09.348Z,33.20
2018-07-24T10:49:09.352Z,36.90
2018-07-24T10:50:09.377Z,44.10
2018-07-24T10:51:09.393Z,41.10
2018-07-24T10:52:09.561Z,34.60
2018-07-24T10:53:09.430Z,34.90
2018-07-24T10:54:09.426Z,37.30
2018-07-24T10:55:09.437Z,40.70
2018-07-24T10:56:09.436Z,35.50
2018-07-24T10:57:09.567Z,34.80
2018-07-24T10:58:09.461Z,36.10
2018-07-24T10:59:09.538Z,34.50
2018-07-24T11:00:09.505Z,31.80
2018-07-24T11:01:09.520Z,32.60
2018-07-24T11:02:09.675Z,34.10
2018-07-24T11:03:09.541Z,35.50
2018-07-24T11:04:09.540Z,32.00
2018-07-24T11:05:09.600Z,31.10
2018-07-24T11:06:09.565Z,34.40
2018-07-24T11:07:09.724Z,32.90
2018-07-24T11:08:09.604Z,33.80
2018-07-24T11:09:09.623Z,33.80
2018-07-24T11:10:09.635Z,32.90
2018-07-24T11:11:09.649Z,34.30
2018-07-24T11:12:09.807Z,33.50
2018-07-24T11:13:09.666Z,32.40
2018-07-24T11:14:09.683Z,34.70
2018-07-24T11:15:09.691Z,36.10
2018-07-24T11:16:09.711Z,35.70
2018-07-24T11:17:09.876Z,39.10
2018-07-24T11:18:09.730Z,39.50
2018-07-24T11:19:09.762Z,35.10
2018-07-24T11:20:09.759Z,35.50
2018-07-24T11:21:09.779Z,34.90
2018-07-24T11:22:10.091Z,36.00
2018-07-24T11:23:09.898Z,34.20
2018-07-24T11:24:10.015Z,34.10
2018-07-24T11:25:09.827Z,34.80
2018-07-24T11:26:09.838Z,36.40
2018-07-24T11:27:09.846Z,37.00
2018-07-24T11:28:10.114Z,34.00
2018-07-24T11:29:09.881Z,34.70
2018-07-24T11:30:09.891Z,36.60
2018-07-24T11:31:09.907Z,42.30
2018-07-24T11:32:09.919Z,40.90
2018-07-24T11:33:10.070Z,45.60
2018-07-24T11:34:10.192Z,49.70
2018-07-24T11:35:09.962Z,43.60
2018-07-24T11:36:10.006Z,37.80
2018-07-24T11:37:09.986Z,36.70
2018-07-24T11:38:09.996Z,35.70
2018-07-24T11:39:10.359Z,37.60
2018-07-24T11:40:10.023Z,36.70
2018-07-24T11:41:10.051Z,38.10
2018-07-24T11:42:10.028Z,40.60
2018-07-24T11:43:10.064Z,35.70
2018-07-24T11:44:10.353Z,36.60
2018-07-24T11:45:10.091Z,35.50
2018-07-24T11:46:10.109Z,36.60
2018-07-24T11:47:10.119Z,38.60
2018-07-24T11:48:10.129Z,35.50
2018-07-24T11:49:10.218Z,36.90
2018-07-24T11:50:10.139Z,34.90
2018-07-24T11:51:10.163Z,35.00
2018-07-24T11:52:10.172Z,35.80
2018-07-24T11:53:10.194Z,35.00
2018-07-24T11:54:10.358Z,37.10
2018-07-24T11:55:10.232Z,35.50
2018-07-24T11:56:10.239Z,34.90
2018-07-24T11:57:10.253Z,33.70
2018-07-24T11:58:10.259Z,34.50
2018-07-24T11:59:10.356Z,35.90
2018-07-24T12:00:10.299Z,34.60
2018-07-24T12:01:10.286Z,35.50
2018-07-24T12:02:10.322Z,41.60
2018-07-24T12:03:10.333Z,39.10
2018-07-24T12:04:10.444Z,41.70
2018-07-24T12:05:10.564Z,41.00
2018-07-24T12:06:10.372Z,36.90
2018-07-24T12:07:10.378Z,38.20
2018-07-24T12:08:10.402Z,34.50
2018-07-24T12:09:10.519Z,33.90
2018-07-24T12:10:10.426Z,36.40
2018-07-24T12:11:10.449Z,32.60
2018-07-24T12:12:10.467Z,37.80
2018-07-24T12:13:10.474Z,34.40
2018-07-24T12:14:10.624Z,34.60
2018-07-24T12:15:10.564Z,37.90
2018-07-24T12:16:10.496Z,36.70
2018-07-24T12:17:10.532Z,39.20
2018-07-24T12:18:10.529Z,35.90
2018-07-24T12:19:10.709Z,36.80
2018-07-24T12:20:10.557Z,34.60
2018-07-24T12:21:10.596Z,37.00
2018-07-24T12:22:10.600Z,33.00
2018-07-24T12:23:10.597Z,28.50
2018-07-24T12:24:10.765Z,28.40
2018-07-24T12:25:10.645Z,30.70
2018-07-24T12:26:10.644Z,29.00
2018-07-24T12:27:10.732Z,31.90
2018-07-24T12:28:10.692Z,29.50
2018-07-24T12:29:10.812Z,31.00
2018-07-24T12:30:10.724Z,29.50
2018-07-24T12:31:10.742Z,33.70
2018-07-24T12:32:10.754Z,32.60
2018-07-24T12:33:10.772Z,31.40
2018-07-24T12:34:10.949Z,27.40
2018-07-24T12:35:10.784Z,28.60
2018-07-24T12:36:10.908Z,27.90
2018-07-24T12:37:10.833Z,28.80
2018-07-24T12:38:10.841Z,28.30
2018-07-24T12:39:10.865Z,29.80